Time;durP1;ratioP1;P1;durP2;ratioP2;P2;SDS_P1;SDS_P2;PMS_P1;PMS_P2;Temp;Humidity;BMP_temperature;BMP_pressure;BME280_temperature;BME280_humidity;BME280_pressure;Samples;Min_cycle;Max_cycle;Signal;HPM_P1;HPM_P2
2022/02/05 00:02:29;;;;;;;9.93;6.80;;;4.80;99.90;;;;;;5068523;28;20472;-40
2022/02/05 00:04:56;;;;;;;8.40;6.37;;;5.10;99.90;;;;;;5081792;28;20442;-41
2022/02/05 00:07:23;;;;;;;8.53;6.23;;;5.00;99.90;;;;;;5082613;28;20431;-41
2022/02/05 00:42:05;;;;;;;7.10;5.70;;;4.70;99.90;;;;;;5086699;28;20449;-41
2022/02/05 00:44:31;;;;;;;5.60;5.10;;;4.80;99.90;;;;;;5087430;28;20196;-40
2022/02/05 00:46:56;;;;;;;7.13;6.10;;;4.70;99.90;;;;;;5087248;28;20498;-41
2022/02/05 00:49:22;;;;;;;8.67;5.87;;;4.30;99.90;;;;;;5083680;28;20565;-41
2022/02/05 00:52:02;;;;;;;5.60;5.00;;;4.50;99.90;;;;;;5081161;28;20188;-40
2022/02/05 00:54:28;;;;;;;9.70;5.43;;;4.70;99.90;;;;;;5086989;28;20192;-40
2022/02/05 00:59:28;;;;;;;7.00;5.80;;;4.80;99.90;;;;;;5086835;28;20200;-40
2022/02/05 01:01:54;;;;;;;6.93;5.33;;;4.70;99.90;;;;;;5086577;28;20954;-40
2022/02/05 01:04:20;;;;;;;8.97;6.70;;;4.80;99.90;;;;;;5085177;28;20195;-40
2022/02/05 01:06:46;;;;;;;6.40;5.50;;;4.90;99.90;;;;;;5081078;28;20230;-39
2022/02/05 01:09:18;;;;;;;9.03;5.40;;;4.90;99.90;;;;;;5090691;28;20220;-41
2022/02/05 01:11:44;;;;;;;6.00;5.40;;;4.80;99.90;;;;;;5090344;28;20810;-40
2022/02/05 01:14:13;;;;;;;7.37;6.10;;;4.90;99.90;;;;;;5090802;28;20587;-40
2022/02/05 01:19:04;;;;;;;8.67;5.37;;;4.90;99.90;;;;;;5089684;28;20430;-40
2022/02/05 01:21:41;;;;;;;6.30;5.70;;;4.90;99.90;;;;;;5082170;28;20220;-40
2022/02/05 01:24:11;;;;;;;15.40;5.80;;;4.80;99.90;;;;;;5085869;28;20483;-39
2022/02/05 01:26:47;;;;;;;7.53;6.03;;;4.80;99.90;;;;;;5090734;28;20838;-41
2022/02/05 01:31:58;;;;;;;7.73;5.43;;;4.60;99.90;;;;;;5090161;28;20790;-40
2022/02/05 01:34:47;;;;;;;7.03;5.63;;;4.40;99.90;;;;;;5089992;28;20430;-40
2022/02/05 01:56:35;;;;;;;9.00;4.37;;;4.40;99.90;;;;;;5088385;28;20537;-40
2022/02/05 02:07:25;;;;;;;6.33;4.23;;;4.30;99.90;;;;;;5079151;28;20434;-40
2022/02/05 02:12:24;;;;;;;6.53;4.80;;;4.40;99.90;;;;;;5089734;28;20995;-40
2022/02/05 02:32:31;;;;;;;8.17;4.30;;;4.40;99.90;;;;;;5078308;28;20433;-39
2022/02/05 02:35:04;;;;;;;6.07;4.27;;;4.40;99.90;;;;;;5087360;28;20434;-40
2022/02/05 02:37:36;;;;;;;5.70;4.73;;;4.40;99.90;;;;;;5083224;28;20430;-41
2022/02/05 02:42:46;;;;;;;9.77;4.97;;;4.40;99.90;;;;;;5089389;28;20430;-40
2022/02/05 02:45:12;;;;;;;7.03;4.23;;;4.30;99.90;;;;;;5087803;28;20928;-39
2022/02/05 02:47:43;;;;;;;7.30;4.20;;;4.30;99.90;;;;;;5089250;28;20426;-40
2022/02/05 02:50:18;;;;;;;8.23;4.40;;;4.20;99.90;;;;;;5084656;28;21130;-40
2022/02/05 02:58:25;;;;;;;5.17;4.10;;;4.30;99.90;;;;;;5064515;28;20437;-40
2022/02/05 03:00:55;;;;;;;6.20;4.17;;;4.60;99.90;;;;;;5088167;28;20431;-42
2022/02/05 03:03:21;;;;;;;6.53;3.80;;;4.60;99.90;;;;;;5089081;28;20445;-41
2022/02/05 03:05:47;;;;;;;6.80;3.87;;;4.60;99.90;;;;;;5083968;28;20921;-40
2022/02/05 03:08:12;;;;;;;7.33;4.43;;;4.40;99.90;;;;;;5086170;28;20220;-40
2022/02/05 03:10:38;;;;;;;8.10;4.47;;;4.70;99.90;;;;;;5087626;28;20208;-41
2022/02/05 03:13:04;;;;;;;5.50;4.27;;;4.50;99.90;;;;;;5089071;28;20659;-39
2022/02/05 03:15:38;;;;;;;6.80;4.23;;;4.40;99.90;;;;;;5088634;28;20207;-40
2022/02/05 03:18:09;;;;;;;7.37;4.30;;;4.40;99.90;;;;;;5089176;28;20195;-40
2022/02/05 03:20:35;;;;;;;5.33;4.03;;;4.70;99.90;;;;;;5085036;28;20435;-40
2022/02/05 03:23:02;;;;;;;8.77;4.73;;;4.50;99.90;;;;;;5082646;28;20483;-40
2022/02/05 03:25:32;;;;;;;8.77;4.43;;;4.30;99.90;;;;;;5087707;28;20453;-43
2022/02/05 03:27:59;;;;;;;8.80;5.47;;;4.40;99.90;;;;;;5088728;28;20500;-40
2022/02/05 03:30:26;;;;;;;9.03;4.23;;;4.20;99.90;;;;;;5087168;28;20470;-40
2022/02/05 03:32:51;;;;;;;8.37;4.50;;;4.30;99.90;;;;;;5088288;28;20490;-41
2022/02/05 03:35:17;;;;;;;5.17;3.40;;;4.30;99.90;;;;;;5085436;28;20956;-40
2022/02/05 03:37:43;;;;;;;7.80;4.00;;;4.30;99.90;;;;;;5081184;28;20894;-41
2022/02/05 03:40:10;;;;;;;7.20;4.67;;;4.40;99.90;;;;;;5087537;28;20606;-41
2022/02/05 03:42:36;;;;;;;9.37;4.20;;;4.30;99.90;;;;;;5088297;28;20805;-40
2022/02/05 03:45:05;;;;;;;9.93;4.70;;;4.30;99.90;;;;;;5088206;28;20441;-43
2022/02/05 03:47:33;;;;;;;6.70;4.37;;;4.40;99.90;;;;;;5086510;28;20220;-43
2022/02/05 03:50:00;;;;;;;6.17;3.97;;;4.40;99.90;;;;;;5087422;28;20549;-40
2022/02/05 03:52:25;;;;;;;6.27;3.93;;;4.50;99.90;;;;;;5079965;28;20430;-41
2022/02/05 03:54:51;;;;;;;10.03;4.10;;;4.50;99.90;;;;;;5087845;28;20616;-40
2022/02/05 03:57:17;;;;;;;6.70;3.30;;;4.40;99.90;;;;;;5087775;28;20206;-39
2022/02/05 03:59:43;;;;;;;9.43;4.67;;;4.30;99.90;;;;;;5087395;28;20419;-41
2022/02/05 04:02:08;;;;;;;9.53;3.60;;;4.40;99.90;;;;;;5086506;28;20195;-40
2022/02/05 04:04:34;;;;;;;9.37;4.73;;;4.60;99.90;;;;;;5087989;28;20344;-41
2022/02/05 04:07:02;;;;;;;5.20;3.87;;;4.40;99.90;;;;;;5074550;28;20189;-41
2022/02/05 04:09:35;;;;;;;6.40;3.70;;;4.30;99.90;;;;;;5087496;28;20426;-40
2022/02/05 04:17:23;;;;;;;7.33;3.53;;;4.60;99.90;;;;;;5087384;28;20507;-42
2022/02/05 04:19:49;;;;;;;7.97;3.50;;;4.60;99.90;;;;;;5087155;28;20567;-40
2022/02/05 04:22:14;;;;;;;8.73;3.90;;;4.60;99.90;;;;;;5076940;28;20955;-41
2022/02/05 04:24:40;;;;;;;6.97;4.57;;;4.70;99.90;;;;;;5087232;28;20450;-41
2022/02/05 04:27:07;;;;;;;13.20;4.47;;;4.60;99.90;;;;;;5087774;28;20192;-41
2022/02/05 04:29:33;;;;;;;10.23;3.67;;;4.60;99.90;;;;;;5086918;28;20285;-40
2022/02/05 04:31:58;;;;;;;9.63;4.30;;;4.60;99.90;;;;;;5087139;28;20474;-41
2022/02/05 04:34:24;;;;;;;6.73;3.57;;;4.60;99.90;;;;;;5087439;28;20212;-40
2022/02/05 04:36:50;;;;;;;10.80;3.90;;;4.60;99.90;;;;;;5076637;28;20659;-40
2022/02/05 04:39:18;;;;;;;5.97;3.90;;;4.60;99.90;;;;;;5086992;28;20646;-41
2022/02/05 04:47:38;;;;;;;8.00;3.30;;;4.40;99.90;;;;;;5059751;28;20457;-39
2022/02/05 04:57:58;;;;;;;3.90;3.00;;;4.50;99.90;;;;;;5091588;28;20192;-40
2022/02/05 05:08:47;;;;;;;6.33;3.33;;;4.80;99.90;;;;;;5056387;28;20819;-40
2022/02/05 05:21:38;;;;;;;5.93;3.77;;;5.00;99.90;;;;;;5084158;28;20893;-40
2022/02/05 05:24:04;;;;;;;7.57;3.47;;;4.80;99.90;;;;;;5085749;28;20529;-40
2022/02/05 05:26:30;;;;;;;6.73;3.30;;;4.70;99.90;;;;;;5090532;28;20419;-41
2022/02/05 05:28:55;;;;;;;7.73;3.37;;;4.90;99.90;;;;;;5090958;28;20184;-40
2022/02/05 05:31:21;;;;;;;9.40;3.60;;;4.80;99.90;;;;;;5090026;28;20223;-40
2022/02/05 05:33:47;;;;;;;3.73;2.90;;;4.80;99.90;;;;;;5090862;28;20253;-41
2022/02/05 05:36:13;;;;;;;7.37;3.07;;;4.60;99.90;;;;;;5086308;28;20183;-40
2022/02/05 05:38:38;;;;;;;5.27;3.50;;;4.80;99.90;;;;;;5086345;28;20184;-40
2022/02/05 05:41:04;;;;;;;7.53;2.73;;;4.70;99.90;;;;;;5089601;28;20184;-41
2022/02/05 05:43:49;;;;;;;11.43;3.70;;;4.50;99.90;;;;;;5090722;28;20765;-40
2022/02/05 05:46:18;;;;;;;8.40;3.83;;;4.50;99.90;;;;;;5090394;28;20737;-41
2022/02/05 05:51:16;;;;;;;4.93;3.43;;;4.60;99.90;;;;;;5086115;28;20493;-40
2022/02/05 05:53:41;;;;;;;8.20;3.93;;;4.60;99.90;;;;;;5082410;28;20422;-40
2022/02/05 05:56:07;;;;;;;11.93;3.70;;;4.70;99.90;;;;;;5090010;28;20224;-40
2022/02/05 05:58:33;;;;;;;6.40;3.30;;;4.60;99.90;;;;;;5090116;28;20215;-42
2022/02/05 06:00:59;;;;;;;5.10;3.67;;;4.40;99.90;;;;;;5089582;28;20421;-40
2022/02/05 06:03:25;;;;;;;6.03;3.10;;;4.50;99.90;;;;;;5085198;28;20422;-40
2022/02/05 06:05:51;;;;;;;6.57;3.50;;;4.50;99.90;;;;;;5090152;28;20430;-40
2022/02/05 06:08:18;;;;;;;7.73;3.67;;;4.40;99.90;;;;;;5078915;28;20231;-41
2022/02/05 06:10:44;;;;;;;11.20;4.53;;;4.60;99.90;;;;;;5089346;28;20242;-40
2022/02/05 06:13:11;;;;;;;5.77;3.30;;;4.50;99.90;;;;;;5088503;28;20419;-40
2022/02/05 06:15:39;;;;;;;5.30;3.13;;;4.70;99.90;;;;;;5089799;28;20177;-41
2022/02/05 06:18:05;;;;;;;6.60;3.50;;;4.60;99.90;;;;;;5089780;28;20410;-41
2022/02/05 06:20:30;;;;;;;7.23;4.00;;;4.50;99.90;;;;;;5088787;28;20426;-41
2022/02/05 06:22:56;;;;;;;6.63;3.70;;;4.50;99.90;;;;;;5083618;28;20622;-41
2022/02/05 06:25:22;;;;;;;6.60;3.63;;;4.50;99.90;;;;;;5089555;28;20419;-40
2022/02/05 06:27:47;;;;;;;4.77;3.20;;;4.50;99.90;;;;;;5089662;28;20188;-40
2022/02/05 06:30:13;;;;;;;6.97;3.73;;;4.50;99.90;;;;;;5087804;28;20208;-40
2022/02/05 06:32:41;;;;;;;10.17;4.70;;;4.60;99.90;;;;;;5089289;28;20172;-41
2022/02/05 06:35:08;;;;;;;10.00;3.90;;;4.60;99.90;;;;;;5089114;28;20189;-40
2022/02/05 06:37:33;;;;;;;6.37;4.17;;;4.60;99.90;;;;;;5079885;28;20447;-40
2022/02/05 06:39:59;;;;;;;3.90;3.27;;;4.60;99.90;;;;;;5089039;28;20423;-40
2022/02/05 06:42:25;;;;;;;5.23;3.40;;;4.50;99.90;;;;;;5089260;28;20207;-42
2022/02/05 06:44:51;;;;;;;7.40;3.80;;;4.60;99.90;;;;;;5089321;28;20817;-41
2022/02/05 06:47:17;;;;;;;11.53;3.83;;;4.50;99.90;;;;;;5089471;28;20200;-40
2022/02/05 06:49:42;;;;;;;7.30;3.50;;;4.60;99.90;;;;;;5088508;28;20399;-40
2022/02/05 06:52:10;;;;;;;5.17;3.43;;;4.50;99.90;;;;;;5077942;28;20327;-39
2022/02/05 06:54:36;;;;;;;11.33;4.20;;;4.60;99.90;;;;;;5086249;28;20234;-40
2022/02/05 06:57:02;;;;;;;7.90;3.90;;;4.60;99.90;;;;;;5089070;28;20434;-41
2022/02/05 06:59:28;;;;;;;6.13;3.87;;;4.50;99.90;;;;;;5088742;28;20423;-40
2022/02/05 07:01:54;;;;;;;4.10;3.60;;;4.50;99.90;;;;;;5087909;28;20480;-40
2022/02/05 07:04:24;;;;;;;10.80;4.50;;;4.60;99.90;;;;;;5088113;28;20184;-40
2022/02/05 07:06:52;;;;;;;10.30;4.73;;;4.50;99.90;;;;;;5085055;28;20181;-42
2022/02/05 07:09:20;;;;;;;6.20;3.73;;;4.60;99.90;;;;;;5075082;28;20430;-40
2022/02/05 07:11:46;;;;;;;10.93;3.87;;;4.60;99.90;;;;;;5084242;28;20472;-39
2022/02/05 07:14:14;;;;;;;8.57;4.40;;;4.60;99.90;;;;;;5087565;28;20429;-40
2022/02/05 07:16:48;;;;;;;7.00;3.77;;;4.60;99.90;;;;;;5087995;28;20453;-40
2022/02/05 07:21:45;;;;;;;7.47;4.70;;;4.40;99.90;;;;;;5086092;28;20685;-41
2022/02/05 07:24:21;;;;;;;10.40;4.17;;;4.40;99.90;;;;;;5085490;28;20185;-40
2022/02/05 07:29:31;;;;;;;13.57;5.27;;;4.50;99.90;;;;;;5088601;28;20422;-42
2022/02/05 07:31:58;;;;;;;5.73;3.70;;;4.40;99.90;;;;;;5087415;28;20932;-40
2022/02/05 07:34:28;;;;;;;6.03;4.00;;;4.40;99.90;;;;;;5088820;28;20243;-40
2022/02/05 07:36:59;;;;;;;8.57;4.13;;;4.60;99.90;;;;;;5084621;28;20458;-40
2022/02/05 07:39:26;;;;;;;5.80;4.00;;;4.60;99.90;;;;;;5082484;28;20935;-40
2022/02/05 07:41:53;;;;;;;6.93;3.70;;;4.70;99.90;;;;;;5087282;28;20794;-40
2022/02/05 07:44:18;;;;;;;5.77;3.70;;;4.30;99.90;;;;;;5087862;28;20808;-39
2022/02/05 07:46:50;;;;;;;12.10;4.60;;;4.60;99.90;;;;;;5087109;28;20423;-40
2022/02/05 07:49:18;;;;;;;7.63;4.00;;;4.60;99.90;;;;;;5085061;28;20222;-41
2022/02/05 07:51:45;;;;;;;9.13;4.13;;;4.70;99.90;;;;;;5084826;28;20466;-40
2022/02/05 07:54:11;;;;;;;7.70;3.73;;;4.60;99.90;;;;;;5082973;28;21093;-42
2022/02/05 07:56:48;;;;;;;7.93;3.90;;;4.70;99.90;;;;;;5085837;28;20443;-40
2022/02/05 07:59:15;;;;;;;6.30;4.10;;;4.60;99.90;;;;;;5067495;28;20442;-40
2022/02/05 08:01:41;;;;;;;9.50;3.77;;;4.40;99.90;;;;;;5084761;28;20426;-42
2022/02/05 08:04:08;;;;;;;8.00;4.03;;;4.60;99.90;;;;;;5087188;28;20499;-39
2022/02/05 08:06:34;;;;;;;8.80;4.00;;;4.60;99.90;;;;;;5089332;28;20963;-40
2022/02/05 08:09:05;;;;;;;8.77;4.20;;;4.50;99.90;;;;;;5082562;28;20427;-40
2022/02/05 08:11:39;;;;;;;9.37;5.30;;;4.50;99.90;;;;;;5085111;28;20549;-40
2022/02/05 08:14:08;;;;;;;6.70;4.80;;;4.50;99.90;;;;;;5086254;28;20484;-40
2022/02/05 08:19:30;;;;;;;6.47;3.80;;;4.60;99.90;;;;;;5061154;28;20476;-40
2022/02/05 08:21:56;;;;;;;4.93;3.90;;;4.50;99.90;;;;;;5085343;28;20427;-40
2022/02/05 08:24:22;;;;;;;7.00;3.90;;;4.60;99.90;;;;;;5079788;28;20188;-40
2022/02/05 08:26:48;;;;;;;6.10;4.20;;;4.50;99.90;;;;;;5087608;28;20222;-40
2022/02/05 08:29:15;;;;;;;7.20;4.90;;;4.70;99.90;;;;;;5087479;28;20430;-40
2022/02/05 08:31:42;;;;;;;8.60;3.47;;;4.80;99.90;;;;;;5085150;28;20555;-40
2022/02/05 08:34:08;;;;;;;6.87;3.63;;;5.10;99.90;;;;;;5087383;28;20480;-41
2022/02/05 08:36:44;;;;;;;4.00;3.40;;;5.10;99.90;;;;;;5087309;28;20446;-44
2022/02/05 08:39:10;;;;;;;11.10;4.27;;;5.50;99.90;;;;;;5080687;28;20775;-40
2022/02/05 08:41:36;;;;;;;7.63;3.97;;;5.60;99.90;;;;;;5086556;28;20422;-41
2022/02/05 08:44:04;;;;;;;10.00;3.70;;;5.70;99.90;;;;;;5087226;28;21015;-40
2022/02/05 08:46:29;;;;;;;4.60;3.70;;;5.60;99.90;;;;;;5087442;28;20422;-40
2022/02/05 08:48:55;;;;;;;9.70;3.57;;;5.50;99.90;;;;;;5087345;28;20436;-40
2022/02/05 08:51:21;;;;;;;7.80;5.30;;;5.40;99.90;;;;;;5086454;28;20208;-42
2022/02/05 08:53:47;;;;;;;7.10;4.60;;;5.10;99.90;;;;;;5079293;28;20189;-40
2022/02/05 08:56:13;;;;;;;8.83;4.63;;;5.40;99.90;;;;;;5086789;28;20478;-41
2022/02/05 08:58:38;;;;;;;12.27;4.07;;;5.30;99.90;;;;;;5087159;28;20521;-40
2022/02/05 09:04:26;;;;;;;10.40;3.93;;;5.30;99.90;;;;;;5087511;28;20283;-40
2022/02/05 09:06:22;;;;;;;9.30;3.90;;;5.20;99.90;;;;;;5079519;28;20426;-40
2022/02/05 09:08:52;;;;;;;10.40;3.83;;;5.30;99.90;;;;;;5076459;28;20442;-40
2022/02/05 09:14:10;;;;;;;9.53;4.23;;;5.40;99.90;;;;;;5087130;28;20449;-40
2022/02/05 09:16:36;;;;;;;6.43;3.93;;;5.80;99.90;;;;;;5086964;28;20429;-43
2022/02/05 09:19:02;;;;;;;7.83;4.67;;;6.00;99.90;;;;;;5087151;28;20940;-39
2022/02/05 09:21:30;;;;;;;5.80;4.10;;;6.20;99.90;;;;;;5086318;28;20199;-42
2022/02/05 09:23:58;;;;;;;10.60;4.20;;;6.30;99.90;;;;;;5074018;28;20443;-39
2022/02/05 09:26:25;;;;;;;9.70;4.37;;;6.50;99.90;;;;;;5084375;28;20437;-40
2022/02/05 09:28:52;;;;;;;8.70;4.80;;;6.30;99.90;;;;;;5090456;28;20588;-41
2022/02/05 09:31:28;;;;;;;7.47;4.80;;;6.60;99.90;;;;;;5089740;28;20593;-41
2022/02/05 09:33:54;;;;;;;6.40;4.47;;;6.70;99.90;;;;;;5077233;28;21128;-40
2022/02/05 09:36:20;;;;;;;6.87;4.97;;;7.10;99.90;;;;;;5090379;28;20831;-39
2022/02/05 09:38:46;;;;;;;12.33;5.63;;;6.80;99.90;;;;;;5067583;28;21031;-40
2022/02/05 09:41:11;;;;;;;6.97;4.80;;;6.90;99.90;;;;;;5085225;28;20635;-42
2022/02/05 09:43:37;;;;;;;12.40;6.57;;;6.90;99.90;;;;;;5090944;28;20188;-43
2022/02/05 09:46:03;;;;;;;8.93;5.47;;;6.90;99.90;;;;;;5090544;28;20184;-40
2022/02/05 09:48:31;;;;;;;12.67;6.37;;;7.00;99.90;;;;;;5076886;28;20188;-42
2022/02/05 09:51:04;;;;;;;10.20;5.73;;;6.90;99.90;;;;;;5089528;28;20200;-42
2022/02/05 09:53:31;;;;;;;8.00;5.80;;;7.30;99.90;;;;;;5082998;28;20473;-40
2022/02/05 09:55:57;;;;;;;10.13;5.60;;;7.30;99.90;;;;;;5085147;28;20525;-42
2022/02/05 09:58:22;;;;;;;8.30;5.57;;;7.30;99.90;;;;;;5090439;28;20521;-40
2022/02/05 10:01:00;;;;;;;7.33;5.87;;;7.10;99.90;;;;;;5088567;28;20188;-40
2022/02/05 10:03:30;;;;;;;7.03;4.70;;;7.10;99.90;;;;;;5089697;28;20195;-42
2022/02/05 10:06:13;;;;;;;8.53;5.67;;;7.30;99.90;;;;;;5090209;28;20775;-40
2022/02/05 10:09:00;;;;;;;8.17;4.63;;;7.30;99.90;;;;;;5083844;28;20962;-40
2022/02/05 10:11:29;;;;;;;9.23;5.47;;;7.20;99.90;;;;;;5084946;28;20624;-40
2022/02/05 10:13:56;;;;;;;7.37;5.60;;;7.20;99.90;;;;;;5089647;28;20418;-41
2022/02/05 10:16:30;;;;;;;9.13;5.67;;;7.40;99.90;;;;;;5089910;28;20688;-42
2022/02/05 10:18:58;;;;;;;11.80;5.27;;;7.50;99.90;;;;;;5089775;28;20423;-40
2022/02/05 10:21:28;;;;;;;9.30;4.70;;;7.90;99.90;;;;;;5089105;28;20422;-40
2022/02/05 10:24:05;;;;;;;7.10;4.63;;;7.80;99.90;;;;;;5082625;28;20450;-40
2022/02/05 10:26:31;;;;;;;9.30;5.40;;;7.90;99.90;;;;;;5088127;28;20421;-40
2022/02/05 10:28:59;;;;;;;8.93;4.67;;;8.00;99.90;;;;;;5089302;28;20418;-40
2022/02/05 10:31:26;;;;;;;8.23;5.20;;;7.70;99.90;;;;;;5088922;28;20287;-40
2022/02/05 10:34:11;;;;;;;8.37;5.00;;;7.50;99.90;;;;;;5089421;28;20441;-40
2022/02/05 10:36:42;;;;;;;7.70;4.37;;;7.50;99.90;;;;;;5089154;28;20432;-40
2022/02/05 10:44:16;;;;;;;7.57;5.17;;;7.60;99.90;;;;;;5089625;28;20561;-42
2022/02/05 10:46:43;;;;;;;7.53;4.13;;;7.50;99.90;;;;;;5089492;28;20199;-40
2022/02/05 10:49:12;;;;;;;5.93;4.40;;;7.50;99.90;;;;;;5089142;28;20431;-40
2022/02/05 10:51:45;;;;;;;9.60;5.50;;;7.30;99.90;;;;;;5088482;28;20477;-40
2022/02/05 10:54:40;;;;;;;6.40;4.30;;;7.10;99.90;;;;;;5079868;28;20439;-40
2022/02/05 10:57:52;;;;;;;9.07;4.67;;;7.30;99.90;;;;;;5083041;28;20439;-39
2022/02/05 11:05:15;;;;;;;8.73;4.20;;;7.20;99.90;;;;;;5072932;28;20799;-40
2022/02/05 11:08:09;;;;;;;9.50;4.27;;;7.30;99.90;;;;;;5087601;28;20434;-40
2022/02/05 11:20:54;;;;;;;7.23;4.77;;;7.00;99.90;;;;;;5087968;28;20465;-40
2022/02/05 11:23:20;;;;;;;6.03;4.37;;;7.20;99.90;;;;;;5085967;28;20458;-40
2022/02/05 11:25:48;;;;;;;6.47;3.90;;;7.30;99.90;;;;;;5080485;28;20271;-40
2022/02/05 11:28:14;;;;;;;5.47;3.37;;;7.40;99.90;;;;;;5088346;28;20427;-40
2022/02/05 11:30:47;;;;;;;4.73;3.40;;;7.70;99.90;;;;;;5087928;28;20469;-42
2022/02/05 11:33:24;;;;;;;5.43;3.50;;;7.60;99.90;;;;;;5088392;28;20192;-41
2022/02/05 11:38:34;;;;;;;8.40;3.20;;;7.90;99.90;;;;;;5087016;28;20423;-42
2022/02/05 11:41:01;;;;;;;6.23;3.43;;;7.60;99.90;;;;;;5084114;28;20943;-40
2022/02/05 11:43:32;;;;;;;6.07;3.20;;;7.90;99.90;;;;;;5087888;28;20418;-40
2022/02/05 11:46:04;;;;;;;7.03;3.53;;;7.80;99.90;;;;;;5088286;28;20463;-40
2022/02/05 11:48:55;;;;;;;7.67;3.60;;;7.60;99.90;;;;;;5087961;28;20414;-42
2022/02/05 11:51:27;;;;;;;10.87;3.10;;;7.70;99.90;;;;;;5087184;28;20508;-40
2022/02/05 11:53:58;;;;;;;5.10;2.60;;;7.60;99.90;;;;;;5082462;28;20862;-41
2022/02/05 11:56:56;;;;;;;5.93;2.63;;;7.60;99.90;;;;;;5079897;28;20882;-40
2022/02/05 11:59:55;;;;;;;8.27;3.13;;;7.90;99.90;;;;;;5087813;28;20803;-41
2022/02/05 12:02:22;;;;;;;6.27;2.73;;;8.00;99.90;;;;;;5081819;28;20972;-41
2022/02/05 12:05:10;;;;;;;6.93;2.47;;;8.20;99.90;;;;;;5087978;28;20423;-40
2022/02/05 12:07:35;;;;;;;8.80;3.20;;;8.70;99.90;;;;;;5083277;28;20422;-40
2022/02/05 12:10:21;;;;;;;4.20;2.43;;;8.50;99.90;;;;;;5088538;28;20832;-40
2022/02/05 12:12:49;;;;;;;7.07;3.30;;;8.60;99.90;;;;;;5085172;28;20176;-41
2022/02/05 12:15:15;;;;;;;4.67;2.83;;;8.50;99.90;;;;;;5087758;28;20423;-40
2022/02/05 12:18:04;;;;;;;4.83;2.60;;;8.50;99.90;;;;;;5087603;28;20474;-40
2022/02/05 12:20:33;;;;;;;4.73;2.77;;;8.40;99.90;;;;;;5087108;28;20458;-40
2022/02/05 12:23:26;;;;;;;6.17;2.83;;;8.10;99.90;;;;;;5087061;28;21024;-40
2022/02/05 12:26:07;;;;;;;8.20;3.23;;;8.10;99.90;;;;;;5076410;28;20457;-40
2022/02/05 12:28:37;;;;;;;6.90;2.73;;;8.00;99.90;;;;;;5073375;28;20786;-40
2022/02/05 12:31:25;;;;;;;5.17;2.57;;;7.70;99.90;;;;;;5086884;28;20547;-40
2022/02/05 12:33:52;;;;;;;7.37;3.40;;;7.70;99.90;;;;;;5087409;28;20448;-40
2022/02/05 12:36:43;;;;;;;5.30;2.80;;;7.70;99.90;;;;;;5087455;28;20752;-42
2022/02/05 12:39:20;;;;;;;4.20;2.80;;;7.60;99.90;;;;;;5083073;28;20439;-41
2022/02/05 12:42:01;;;;;;;3.90;2.30;;;7.70;99.90;;;;;;5080952;28;20513;-40
2022/02/05 12:44:30;;;;;;;4.90;2.83;;;7.40;99.90;;;;;;5087479;28;20422;-42
2022/02/05 12:47:05;;;;;;;7.73;2.40;;;7.50;99.90;;;;;;5086275;28;20418;-40
2022/02/05 12:52:04;;;;;;;6.20;2.90;;;7.50;99.90;;;;;;5086936;28;20438;-40
2022/02/05 12:54:31;;;;;;;12.30;3.30;;;7.40;99.90;;;;;;5082634;28;20466;-40
2022/02/05 12:56:59;;;;;;;6.27;2.73;;;7.70;99.90;;;;;;5080675;28;20488;-40
2022/02/05 12:59:36;;;;;;;7.30;2.90;;;8.00;99.90;;;;;;5087103;28;20430;-41
2022/02/05 13:02:07;;;;;;;9.67;3.30;;;7.70;99.90;;;;;;5087445;28;20428;-40
2022/02/05 13:04:39;;;;;;;6.57;2.90;;;7.70;99.90;;;;;;5091263;28;20727;-39
2022/02/05 13:07:06;;;;;;;5.23;2.83;;;7.80;99.90;;;;;;5091160;28;20508;-40
2022/02/05 13:09:37;;;;;;;8.00;2.80;;;7.80;99.90;;;;;;5072278;28;20439;-43
2022/02/05 13:12:06;;;;;;;7.00;2.90;;;7.80;99.90;;;;;;5085336;28;20475;-39
2022/02/05 13:14:43;;;;;;;4.90;2.70;;;8.00;99.90;;;;;;5091155;28;20450;-40
2022/02/05 13:17:21;;;;;;;4.53;3.33;;;7.90;99.90;;;;;;5090934;28;20448;-40
2022/02/05 13:20:17;;;;;;;5.93;3.47;;;7.90;99.90;;;;;;5090749;28;20786;-40
2022/02/05 13:38:52;;;;;;;6.20;2.90;;;7.80;99.90;;;;;;5090593;28;20923;-41
2022/02/05 13:41:26;;;;;;;5.50;3.00;;;7.70;99.90;;;;;;5080385;28;20725;-41
2022/02/05 13:43:56;;;;;;;5.73;2.73;;;7.50;99.90;;;;;;5090829;28;20418;-39
2022/02/05 13:46:23;;;;;;;5.20;3.20;;;7.40;99.90;;;;;;5090175;28;20453;-40
2022/02/05 13:48:48;;;;;;;5.20;2.87;;;7.50;99.90;;;;;;5090694;28;20843;-40
2022/02/05 13:51:16;;;;;;;6.67;3.50;;;7.50;99.90;;;;;;5089343;28;20588;-41
2022/02/05 13:53:50;;;;;;;8.97;3.43;;;7.50;99.90;;;;;;5090487;28;20184;-40
2022/02/05 13:56:17;;;;;;;7.50;2.87;;;7.60;99.90;;;;;;5079974;28;20449;-41
2022/02/05 13:58:43;;;;;;;6.80;2.50;;;7.90;99.90;;;;;;5082204;28;20617;-40
2022/02/05 14:01:10;;;;;;;4.50;1.93;;;7.80;99.90;;;;;;5089643;28;20434;-40
2022/02/05 14:03:38;;;;;;;5.27;1.90;;;7.70;99.90;;;;;;5090183;28;20442;-40
2022/02/05 14:06:12;;;;;;;3.83;1.73;;;7.80;99.90;;;;;;5090317;28;20840;-41
2022/02/05 14:08:56;;;;;;;3.43;1.90;;;7.70;99.90;;;;;;5089904;28;20446;-41
2022/02/05 14:11:27;;;;;;;9.43;2.50;;;7.60;99.90;;;;;;5079440;28;20988;-40
2022/02/05 14:14:04;;;;;;;4.63;2.27;;;7.80;99.90;;;;;;5088226;28;20556;-40
2022/02/05 14:16:32;;;;;;;5.73;2.50;;;7.80;99.90;;;;;;5089873;28;20414;-40
2022/02/05 14:19:00;;;;;;;5.83;2.23;;;7.80;99.90;;;;;;5089534;28;20525;-40
2022/02/05 14:21:54;;;;;;;7.43;2.60;;;7.90;99.90;;;;;;5089320;28;20430;-39
2022/02/05 14:24:33;;;;;;;3.90;1.90;;;8.10;99.90;;;;;;5087357;28;20431;-40
2022/02/05 14:27:14;;;;;;;5.47;2.17;;;8.10;99.90;;;;;;5076976;28;20458;-40
2022/02/05 14:29:56;;;;;;;4.97;2.10;;;8.00;99.90;;;;;;5088856;28;20798;-40
2022/02/05 14:35:34;;;;;;;2.93;2.00;;;7.80;99.90;;;;;;5089500;28;20458;-42
2022/02/05 14:43:08;;;;;;;5.07;3.40;;;7.60;99.90;;;;;;5086161;28;20452;-40
2022/02/05 14:45:34;;;;;;;4.77;1.90;;;7.70;99.90;;;;;;5089398;28;20722;-41
2022/02/05 14:48:00;;;;;;;5.47;2.20;;;7.60;99.90;;;;;;5089291;28;20522;-41
2022/02/05 14:50:26;;;;;;;6.27;2.30;;;7.40;99.90;;;;;;5086408;28;20665;-40
2022/02/05 14:52:52;;;;;;;10.10;2.80;;;7.40;99.90;;;;;;5087702;28;20430;-39
2022/02/05 14:55:19;;;;;;;3.40;2.70;;;7.30;99.90;;;;;;5081357;28;20196;-39
2022/02/05 14:57:45;;;;;;;9.93;3.30;;;7.40;99.90;;;;;;5087810;28;20422;-40
2022/02/05 15:00:11;;;;;;;6.03;2.70;;;7.30;99.90;;;;;;5087300;28;20788;-40
2022/02/05 15:02:37;;;;;;;5.70;2.17;;;7.30;99.90;;;;;;5087018;28;20532;-40
2022/02/05 15:05:10;;;;;;;3.80;2.40;;;7.20;99.90;;;;;;5088587;28;20509;-40
2022/02/05 15:07:37;;;;;;;4.43;2.80;;;7.00;99.90;;;;;;5088807;28;20989;-40
2022/02/05 15:10:03;;;;;;;4.60;2.87;;;7.20;99.90;;;;;;5084755;28;20521;-39
2022/02/05 15:12:28;;;;;;;11.30;4.03;;;7.20;99.90;;;;;;5082703;28;20414;-40
2022/02/05 15:14:54;;;;;;;7.63;3.03;;;7.20;99.90;;;;;;5088549;28;20419;-40
2022/02/05 15:17:20;;;;;;;5.93;2.93;;;7.40;99.90;;;;;;5088615;28;20216;-40
2022/02/05 15:19:46;;;;;;;8.70;3.03;;;7.40;99.90;;;;;;5088080;28;20192;-40
2022/02/05 15:22:11;;;;;;;6.53;3.40;;;7.50;99.90;;;;;;5088125;28;20510;-40
2022/02/05 15:24:37;;;;;;;5.10;3.27;;;7.10;99.90;;;;;;5088250;28;20557;-40
2022/02/05 15:27:03;;;;;;;5.40;3.00;;;7.30;99.90;;;;;;5075481;28;20192;-40
2022/02/05 15:29:29;;;;;;;6.53;2.97;;;7.30;99.90;;;;;;5088428;28;20184;-39
2022/02/05 15:31:54;;;;;;;7.47;2.60;;;7.10;99.90;;;;;;5087942;28;20469;-40
2022/02/05 15:34:20;;;;;;;6.07;2.50;;;7.10;99.90;;;;;;5088472;28;20223;-40
2022/02/05 15:36:56;;;;;;;8.83;2.70;;;7.30;99.90;;;;;;5087867;28;20184;-40
2022/02/05 15:44:38;;;;;;;4.90;2.43;;;7.40;99.90;;;;;;5087690;28;20418;-39
2022/02/05 15:47:04;;;;;;;3.50;1.53;;;7.40;99.90;;;;;;5087944;28;20427;-40
2022/02/05 15:49:30;;;;;;;3.47;1.83;;;7.20;99.90;;;;;;5088331;28;20188;-39
2022/02/05 15:51:58;;;;;;;5.67;1.93;;;7.10;99.90;;;;;;5087359;28;20466;-40
2022/02/05 15:54:27;;;;;;;3.80;2.20;;;7.00;99.90;;;;;;5086040;28;20430;-40
2022/02/05 15:57:21;;;;;;;3.73;2.30;;;7.00;99.90;;;;;;5077729;28;20454;-40
2022/02/05 16:02:13;;;;;;;5.77;2.27;;;7.00;99.90;;;;;;5085252;28;20434;-39
2022/02/05 16:04:38;;;;;;;2.50;1.93;;;6.90;99.90;;;;;;5087554;28;20173;-39
2022/02/05 16:07:04;;;;;;;5.87;2.10;;;7.20;99.90;;;;;;5087383;28;20479;-39
2022/02/05 16:09:30;;;;;;;4.80;2.17;;;7.10;99.90;;;;;;5086737;28;20188;-40
2022/02/05 16:11:57;;;;;;;5.43;2.13;;;7.20;99.90;;;;;;5076625;28;20469;-40
2022/02/05 16:14:23;;;;;;;4.60;2.00;;;7.20;99.90;;;;;;5086725;28;20242;-39
2022/02/05 16:16:48;;;;;;;4.40;2.50;;;7.00;99.90;;;;;;5086490;28;20418;-40
2022/02/05 16:19:14;;;;;;;9.63;2.20;;;7.10;99.90;;;;;;5085463;28;20549;-40
2022/02/05 16:21:40;;;;;;;4.57;1.90;;;7.30;99.90;;;;;;5079179;28;20287;-39
2022/02/05 16:24:06;;;;;;;5.67;1.93;;;7.30;99.90;;;;;;5086594;28;20180;-39
2022/02/05 16:26:31;;;;;;;8.33;2.40;;;7.20;99.90;;;;;;5074823;28;20189;-40
2022/02/05 16:28:57;;;;;;;5.97;2.37;;;7.10;99.90;;;;;;5086117;28;20422;-40
2022/02/05 16:31:23;;;;;;;3.93;1.80;;;7.10;99.90;;;;;;5086266;28;20674;-39
2022/02/05 16:33:51;;;;;;;5.17;1.67;;;7.10;99.90;;;;;;5086887;28;20188;-40
2022/02/05 16:36:25;;;;;;;4.50;1.70;;;7.00;99.90;;;;;;5086278;28;20222;-40